Time;durP1;ratioP1;P1;durP2;ratioP2;P2;SDS_P1;SDS_P2;PMS_P1;PMS_P2;Temp;Humidity;BMP_temperature;BMP_pressure;BME280_temperature;BME280_humidity;BME280_pressure;Samples;Min_cycle;Max_cycle;Signal;HPM_P1;HPM_P2
2022/09/17 00:00:22;;;;;;;0.40;0.40;;;;;;;;;;7389212;19;19998;-69
2022/09/17 00:02:54;;;;;;;0.88;0.77;;;;;;;;;;7387331;19;20001;-70
2022/09/17 00:05:21;;;;;;;0.52;0.52;;;;;;;;;;7388325;19;19995;-69
2022/09/17 00:07:47;;;;;;;5.15;0.40;;;;;;;;;;7393377;19;20007;-69
2022/09/17 00:10:12;;;;;;;1.75;0.47;;;;;;;;;;7388300;19;20338;-69
2022/09/17 00:12:37;;;;;;;4.20;1.30;;;;;;;;;;7387020;19;19998;-69
2022/09/17 00:15:03;;;;;;;0.38;0.35;;;;;;;;;;7388096;19;20555;-68
2022/09/17 00:17:28;;;;;;;0.50;0.50;;;;;;;;;;7386087;19;20098;-69
2022/09/17 00:19:54;;;;;;;2.28;0.80;;;;;;;;;;7388109;19;20381;-69
2022/09/17 00:22:19;;;;;;;0.25;0.22;;;;;;;;;;7386643;19;20006;-67
2022/09/17 00:24:45;;;;;;;0.77;0.65;;;;;;;;;;7387842;19;19990;-69
2022/09/17 00:27:10;;;;;;;0.38;0.38;;;;;;;;;;7387491;19;20001;-69
2022/09/17 00:29:35;;;;;;;0.20;0.20;;;;;;;;;;7387855;19;20001;-69
2022/09/17 00:32:01;;;;;;;0.82;0.52;;;;;;;;;;7387337;19;19999;-69
2022/09/17 00:34:26;;;;;;;1.17;0.90;;;;;;;;;;7387271;19;20533;-69
2022/09/17 00:36:51;;;;;;;0.73;0.50;;;;;;;;;;7387492;19;19995;-68
2022/09/17 00:39:17;;;;;;;1.38;0.65;;;;;;;;;;7385786;19;20355;-69
2022/09/17 00:41:43;;;;;;;0.88;0.70;;;;;;;;;;7386596;19;19998;-68
2022/09/17 00:44:47;;;;;;;0.40;0.40;;;;;;;;;;7386137;19;20396;-69
2022/09/17 00:47:36;;;;;;;1.15;1.05;;;;;;;;;;7386928;19;20104;-68
2022/09/17 00:50:12;;;;;;;0.57;0.50;;;;;;;;;;7389218;19;19995;-69
2022/09/17 00:52:42;;;;;;;0.40;0.40;;;;;;;;;;7392945;19;20429;-69
2022/09/17 00:55:39;;;;;;;1.42;0.82;;;;;;;;;;7393372;19;20364;-69
2022/09/17 00:58:08;;;;;;;0.35;0.35;;;;;;;;;;7392832;19;20003;-69
2022/09/17 01:00:33;;;;;;;0.43;0.43;;;;;;;;;;7392838;19;20002;-69
2022/09/17 01:02:59;;;;;;;0.38;0.38;;;;;;;;;;7392484;19;20099;-69
2022/09/17 01:05:35;;;;;;;5.63;0.60;;;;;;;;;;7394388;19;19995;-68
2022/09/17 01:08:17;;;;;;;3.05;0.80;;;;;;;;;;7394291;19;19998;-69
2022/09/17 01:10:57;;;;;;;0.50;0.50;;;;;;;;;;7393806;19;20471;-68
2022/09/17 01:13:47;;;;;;;0.93;0.33;;;;;;;;;;7391781;19;20003;-69
2022/09/17 01:16:38;;;;;;;0.77;0.77;;;;;;;;;;7397263;19;20002;-69
2022/09/17 01:19:37;;;;;;;1.67;0.88;;;;;;;;;;7389412;19;20058;-69
2022/09/17 01:22:17;;;;;;;0.43;0.40;;;;;;;;;;7392485;19;20002;-68
2022/09/17 01:24:51;;;;;;;0.32;0.30;;;;;;;;;;7393737;19;20822;-68
2022/09/17 01:27:38;;;;;;;1.05;0.60;;;;;;;;;;7395506;19;20006;-69
2022/09/17 01:30:21;;;;;;;0.57;0.57;;;;;;;;;;7392878;19;19991;-69
2022/09/17 01:32:54;;;;;;;0.57;0.57;;;;;;;;;;7391772;19;20505;-68
2022/09/17 01:35:25;;;;;;;1.65;0.80;;;;;;;;;;7393247;19;19999;-68
2022/09/17 01:38:33;;;;;;;0.73;0.52;;;;;;;;;;7392638;19;20352;-68
2022/09/17 01:41:21;;;;;;;0.82;0.73;;;;;;;;;;7391450;19;19999;-68
2022/09/17 01:44:08;;;;;;;0.93;0.73;;;;;;;;;;7390935;19;19998;-68
2022/09/17 01:46:46;;;;;;;2.17;0.85;;;;;;;;;;7393118;19;20376;-68
2022/09/17 01:49:15;;;;;;;0.30;0.30;;;;;;;;;;7393581;19;19995;-68
2022/09/17 01:51:45;;;;;;;0.40;0.40;;;;;;;;;;7392637;19;20009;-68
2022/09/17 01:54:22;;;;;;;0.63;0.40;;;;;;;;;;7390830;19;20010;-69
2022/09/17 01:56:55;;;;;;;0.77;0.77;;;;;;;;;;7397443;19;20058;-69
2022/09/17 01:59:42;;;;;;;1.05;0.55;;;;;;;;;;7390346;19;20065;-68
2022/09/17 02:02:14;;;;;;;0.98;0.60;;;;;;;;;;7393115;19;20001;-68
2022/09/17 02:04:47;;;;;;;0.50;0.50;;;;;;;;;;7392607;19;19998;-68
2022/09/17 02:07:21;;;;;;;0.65;0.57;;;;;;;;;;7392450;19;20011;-67
2022/09/17 02:09:54;;;;;;;0.75;0.75;;;;;;;;;;7393199;19;20002;-69
2022/09/17 02:12:27;;;;;;;1.10;0.68;;;;;;;;;;7391438;19;20002;-69
2022/09/17 02:14:56;;;;;;;0.47;0.47;;;;;;;;;;7392867;19;19999;-69
2022/09/17 02:17:30;;;;;;;0.60;0.60;;;;;;;;;;7391272;19;20011;-69
2022/09/17 02:19:56;;;;;;;0.40;0.40;;;;;;;;;;7392244;19;19999;-69
2022/09/17 02:22:27;;;;;;;4.45;1.23;;;;;;;;;;7389221;19;20005;-69
2022/09/17 02:25:02;;;;;;;1.08;0.38;;;;;;;;;;7392332;19;20002;-69
2022/09/17 02:27:54;;;;;;;0.45;0.45;;;;;;;;;;7392104;19;20023;-69
2022/09/17 02:30:19;;;;;;;;;;;;;;;;;;7391771;19;20016;-69
2022/09/17 02:32:45;;;;;;;0.32;0.32;;;;;;;;;;7389864;19;20325;-68
2022/09/17 02:35:12;;;;;;;2.63;1.27;;;;;;;;;;7391351;19;20499;-69
2022/09/17 02:37:38;;;;;;;1.85;0.98;;;;;;;;;;7390761;19;20491;-69
2022/09/17 02:40:05;;;;;;;0.50;0.50;;;;;;;;;;7389351;19;19998;-68
2022/09/17 02:43:16;;;;;;;0.93;0.93;;;;;;;;;;7388393;19;20034;-68
2022/09/17 02:45:59;;;;;;;0.75;0.75;;;;;;;;;;7388996;19;20038;-69
2022/09/17 02:48:39;;;;;;;1.08;0.82;;;;;;;;;;7391269;19;20037;-69
2022/09/17 02:51:15;;;;;;;2.40;0.75;;;;;;;;;;7390599;19;20327;-68
2022/09/17 02:53:58;;;;;;;2.17;0.75;;;;;;;;;;7387381;19;20002;-68
2022/09/17 02:56:35;;;;;;;0.80;0.70;;;;;;;;;;7390707;19;20392;-68
2022/09/17 02:59:22;;;;;;;2.05;1.15;;;;;;;;;;7389260;19;19998;-69
2022/09/17 03:01:55;;;;;;;0.73;0.73;;;;;;;;;;7388300;19;20315;-69
2022/09/17 03:04:23;;;;;;;2.95;1.00;;;;;;;;;;7388285;19;19995;-69
2022/09/17 03:06:51;;;;;;;1.98;0.65;;;;;;;;;;7390650;19;20604;-68
2022/09/17 03:09:16;;;;;;;2.08;0.93;;;;;;;;;;7390005;19;19995;-69
2022/09/17 03:11:42;;;;;;;0.52;0.50;;;;;;;;;;7389286;19;20020;-69
2022/09/17 03:14:07;;;;;;;1.35;0.88;;;;;;;;;;7387560;19;19994;-69
2022/09/17 03:16:32;;;;;;;0.63;0.63;;;;;;;;;;7391777;19;19990;-68
2022/09/17 03:18:58;;;;;;;1.27;0.70;;;;;;;;;;7390662;19;20019;-69
2022/09/17 03:21:23;;;;;;;0.65;0.60;;;;;;;;;;7389624;19;19994;-69
2022/09/17 03:23:48;;;;;;;1.33;1.23;;;;;;;;;;7387598;19;20021;-69
2022/09/17 03:26:14;;;;;;;9.20;0.90;;;;;;;;;;7389933;19;20024;-69
2022/09/17 03:28:39;;;;;;;0.57;0.57;;;;;;;;;;7389789;19;20039;-69
2022/09/17 03:31:04;;;;;;;6.43;1.17;;;;;;;;;;7388702;19;19995;-69
2022/09/17 03:33:30;;;;;;;0.55;0.50;;;;;;;;;;7388106;19;19999;-69
2022/09/17 03:35:56;;;;;;;1.05;0.77;;;;;;;;;;7388994;19;20020;-69
2022/09/17 03:38:22;;;;;;;1.02;0.88;;;;;;;;;;7388855;19;19991;-69
2022/09/17 03:41:01;;;;;;;1.33;0.90;;;;;;;;;;7388818;19;20002;-69
2022/09/17 03:43:27;;;;;;;0.50;0.50;;;;;;;;;;7385799;19;20034;-69
2022/09/17 03:45:53;;;;;;;1.42;0.43;;;;;;;;;;7388738;19;19998;-69
2022/09/17 03:48:18;;;;;;;1.80;1.48;;;;;;;;;;7388882;19;20018;-69
2022/09/17 03:50:43;;;;;;;0.73;0.55;;;;;;;;;;7388587;19;20020;-69
2022/09/17 03:53:08;;;;;;;0.93;0.88;;;;;;;;;;7385943;19;20058;-69
2022/09/17 03:55:37;;;;;;;2.97;1.35;;;;;;;;;;7388459;19;19999;-69
2022/09/17 03:58:02;;;;;;;2.97;1.10;;;;;;;;;;7388422;19;20002;-68
2022/09/17 04:00:27;;;;;;;1.45;0.82;;;;;;;;;;7388180;19;20428;-68
2022/09/17 04:02:53;;;;;;;2.13;1.08;;;;;;;;;;7388932;19;19998;-70
2022/09/17 04:05:18;;;;;;;1.10;0.80;;;;;;;;;;7388400;19;19994;-69
2022/09/17 04:07:43;;;;;;;1.80;0.93;;;;;;;;;;7388020;19;19994;-69
2022/09/17 04:10:09;;;;;;;1.00;0.95;;;;;;;;;;7386770;19;20462;-69
2022/09/17 04:12:35;;;;;;;4.65;0.65;;;;;;;;;;7386998;19;19995;-70
2022/09/17 04:15:00;;;;;;;4.90;1.77;;;;;;;;;;7387820;19;19995;-70
2022/09/17 04:17:26;;;;;;;0.90;0.65;;;;;;;;;;7388129;19;20066;-69
2022/09/17 04:19:52;;;;;;;1.77;1.17;;;;;;;;;;7387786;19;20001;-70
2022/09/17 04:24:50;;;;;;;0.93;0.75;;;;;;;;;;7387644;19;20011;-70
2022/09/17 04:27:15;;;;;;;1.00;0.85;;;;;;;;;;7387946;19;20023;-70
2022/09/17 04:29:41;;;;;;;2.65;0.65;;;;;;;;;;7387634;19;20449;-70
2022/09/17 04:32:06;;;;;;;3.97;1.52;;;;;;;;;;7387115;19;20002;-69
2022/09/17 04:34:31;;;;;;;5.05;1.00;;;;;;;;;;7385595;19;20371;-69
2022/09/17 04:36:57;;;;;;;1.40;0.68;;;;;;;;;;7385629;19;20054;-70
2022/09/17 04:39:22;;;;;;;1.45;1.35;;;;;;;;;;7383930;19;19995;-70
2022/09/17 04:41:48;;;;;;;1.40;1.05;;;;;;;;;;7385322;19;19998;-71
2022/09/17 04:44:13;;;;;;;1.27;1.20;;;;;;;;;;7384541;19;20473;-70
2022/09/17 04:46:38;;;;;;;1.15;1.00;;;;;;;;;;7387896;19;20284;-71
2022/09/17 04:49:04;;;;;;;2.00;1.33;;;;;;;;;;7387631;19;20010;-70
2022/09/17 04:51:29;;;;;;;1.17;0.85;;;;;;;;;;7386491;19;19994;-70
2022/09/17 04:53:54;;;;;;;0.98;0.85;;;;;;;;;;7386547;19;20070;-71
2022/09/17 04:56:20;;;;;;;1.55;1.10;;;;;;;;;;7387900;19;20352;-70
2022/09/17 04:58:45;;;;;;;1.08;1.00;;;;;;;;;;7386436;19;20011;-71
2022/09/17 05:01:12;;;;;;;1.92;0.93;;;;;;;;;;7385385;19;20443;-71
2022/09/17 05:03:38;;;;;;;1.65;0.77;;;;;;;;;;7385802;19;20488;-71
2022/09/17 05:06:03;;;;;;;0.52;0.47;;;;;;;;;;7386713;19;20002;-70
2022/09/17 05:08:29;;;;;;;1.23;1.10;;;;;;;;;;7386924;19;20512;-70
2022/09/17 05:10:55;;;;;;;17.38;1.30;;;;;;;;;;7386588;19;20020;-69
2022/09/17 05:13:20;;;;;;;2.45;1.13;;;;;;;;;;7385307;19;20010;-70
2022/09/17 05:15:46;;;;;;;1.13;0.65;;;;;;;;;;7390096;19;20010;-70
2022/09/17 05:18:11;;;;;;;0.85;0.85;;;;;;;;;;7385622;19;19995;-71
2022/09/17 05:20:36;;;;;;;1.42;0.90;;;;;;;;;;7386327;19;20090;-70
2022/09/17 05:23:01;;;;;;;0.93;0.93;;;;;;;;;;7384623;19;20003;-69
2022/09/17 05:25:27;;;;;;;1.10;0.70;;;;;;;;;;7384872;19;20063;-70
2022/09/17 05:27:52;;;;;;;3.30;0.80;;;;;;;;;;7386431;19;20011;-70
2022/09/17 05:30:18;;;;;;;0.47;0.45;;;;;;;;;;7386010;19;20489;-71
2022/09/17 05:32:43;;;;;;;0.70;0.70;;;;;;;;;;7383332;19;20071;-71
2022/09/17 05:35:09;;;;;;;0.88;0.80;;;;;;;;;;7386077;19;20011;-70
2022/09/17 05:37:35;;;;;;;0.95;0.88;;;;;;;;;;7391275;19;19999;-70
2022/09/17 05:40:01;;;;;;;2.38;1.02;;;;;;;;;;7393171;19;19995;-71
2022/09/17 05:42:27;;;;;;;3.92;1.15;;;;;;;;;;7391840;19;20242;-70
2022/09/17 05:44:52;;;;;;;0.85;0.80;;;;;;;;;;7393268;19;20001;-72
2022/09/17 05:47:17;;;;;;;2.13;0.65;;;;;;;;;;7392687;19;20020;-70
2022/09/17 05:49:43;;;;;;;6.90;1.33;;;;;;;;;;7396254;19;20074;-69
2022/09/17 05:52:08;;;;;;;9.90;2.67;;;;;;;;;;7392352;19;20488;-71
2022/09/17 05:54:33;;;;;;;18.73;5.68;;;;;;;;;;7390445;19;19995;-71
2022/09/17 05:56:58;;;;;;;5.43;1.67;;;;;;;;;;7393503;19;20402;-70
2022/09/17 05:59:24;;;;;;;3.42;1.15;;;;;;;;;;7390268;19;20136;-70
2022/09/17 06:01:49;;;;;;;1.13;0.85;;;;;;;;;;7395908;19;20491;-70
2022/09/17 06:04:16;;;;;;;1.65;0.93;;;;;;;;;;7389971;19;19999;-70
2022/09/17 06:06:42;;;;;;;6.25;1.20;;;;;;;;;;7391864;19;20038;-70
2022/09/17 06:09:08;;;;;;;3.35;1.27;;;;;;;;;;7389937;19;20082;-70
2022/09/17 06:11:34;;;;;;;0.68;0.55;;;;;;;;;;7389490;19;19990;-72
2022/09/17 06:13:59;;;;;;;2.15;0.80;;;;;;;;;;7390261;19;19998;-70
2022/09/17 06:16:25;;;;;;;4.10;2.17;;;;;;;;;;7391887;19;20002;-70
2022/09/17 06:18:51;;;;;;;3.13;1.95;;;;;;;;;;7390670;19;20021;-70
2022/09/17 06:21:17;;;;;;;2.63;1.05;;;;;;;;;;7390314;19;19999;-70
2022/09/17 06:23:42;;;;;;;2.50;1.02;;;;;;;;;;7390048;19;20499;-69
2022/09/17 06:26:08;;;;;;;4.03;1.27;;;;;;;;;;7391825;19;20002;-69
2022/09/17 06:28:35;;;;;;;1.35;1.05;;;;;;;;;;7389335;19;20326;-69
2022/09/17 06:31:02;;;;;;;5.43;1.80;;;;;;;;;;7390317;19;20011;-71
2022/09/17 06:33:29;;;;;;;2.92;1.50;;;;;;;;;;7389518;19;19999;-69
2022/09/17 06:35:56;;;;;;;2.25;1.17;;;;;;;;;;7389135;19;19999;-70
2022/09/17 06:38:21;;;;;;;6.13;1.30;;;;;;;;;;7389945;19;19998;-70
2022/09/17 06:40:51;;;;;;;1.35;0.85;;;;;;;;;;7390561;19;20006;-70
2022/09/17 06:43:16;;;;;;;6.00;1.30;;;;;;;;;;7389125;19;20006;-70
2022/09/17 06:45:42;;;;;;;1.25;0.73;;;;;;;;;;7390500;19;19995;-71
2022/09/17 06:48:08;;;;;;;1.55;0.93;;;;;;;;;;7388473;19;20017;-71
2022/09/17 06:50:33;;;;;;;2.63;1.13;;;;;;;;;;7390546;19;20520;-69
2022/09/17 06:52:59;;;;;;;0.95;0.75;;;;;;;;;;7389925;19;20322;-70
2022/09/17 06:55:24;;;;;;;1.40;0.80;;;;;;;;;;7391112;19;20375;-70
2022/09/17 06:57:49;;;;;;;2.67;1.05;;;;;;;;;;7389700;19;20005;-69
2022/09/17 07:00:15;;;;;;;3.92;1.08;;;;;;;;;;7390616;19;19999;-70
2022/09/17 07:02:40;;;;;;;1.83;0.85;;;;;;;;;;7389146;19;20003;-70
2022/09/17 07:05:06;;;;;;;3.00;1.42;;;;;;;;;;7390118;19;19998;-71
2022/09/17 07:07:33;;;;;;;1.35;0.80;;;;;;;;;;7390260;19;20534;-69
2022/09/17 07:09:59;;;;;;;3.08;1.20;;;;;;;;;;7389905;19;20002;-70
2022/09/17 07:12:24;;;;;;;2.38;0.88;;;;;;;;;;7388454;19;20018;-70
2022/09/17 07:14:49;;;;;;;5.70;1.08;;;;;;;;;;7389925;19;20123;-70
2022/09/17 07:17:15;;;;;;;1.85;0.80;;;;;;;;;;7391411;19;20050;-68
2022/09/17 07:19:40;;;;;;;0.98;0.90;;;;;;;;;;7387382;19;19999;-70
2022/09/17 07:22:06;;;;;;;2.05;1.05;;;;;;;;;;7389074;19;20002;-70
2022/09/17 07:24:32;;;;;;;2.70;0.98;;;;;;;;;;7388170;19;19999;-70
2022/09/17 07:26:57;;;;;;;1.80;0.88;;;;;;;;;;7389588;19;20561;-70
2022/09/17 07:29:26;;;;;;;1.02;0.73;;;;;;;;;;7388607;19;20017;-70
2022/09/17 07:31:54;;;;;;;7.13;1.52;;;;;;;;;;7389127;19;19998;-70
2022/09/17 07:34:20;;;;;;;1.20;1.10;;;;;;;;;;7387941;19;20347;-69
2022/09/17 07:36:45;;;;;;;0.85;0.80;;;;;;;;;;7389983;19;20042;-69
2022/09/17 07:39:12;;;;;;;4.72;1.23;;;;;;;;;;7388067;19;20003;-69
2022/09/17 07:41:40;;;;;;;4.03;1.10;;;;;;;;;;7388728;19;20007;-70
2022/09/17 07:44:06;;;;;;;1.98;0.73;;;;;;;;;;7390926;19;20006;-69
2022/09/17 07:46:32;;;;;;;3.35;1.30;;;;;;;;;;7391777;19;20098;-69
2022/09/17 07:48:57;;;;;;;2.92;1.05;;;;;;;;;;7388567;19;20153;-70
2022/09/17 07:51:27;;;;;;;1.92;1.15;;;;;;;;;;7392500;19;20002;-70
2022/09/17 07:53:54;;;;;;;4.60;1.20;;;;;;;;;;7387685;19;20013;-69
2022/09/17 07:56:20;;;;;;;3.63;1.48;;;;;;;;;;7386790;19;20463;-70
2022/09/17 07:58:45;;;;;;;1.38;1.02;;;;;;;;;;7386647;19;19998;-70
2022/09/17 08:01:14;;;;;;;2.90;1.00;;;;;;;;;;7387586;19;19999;-70
2022/09/17 08:03:39;;;;;;;1.98;0.98;;;;;;;;;;7387141;19;19999;-69
2022/09/17 08:06:10;;;;;;;2.60;1.00;;;;;;;;;;7388119;19;20021;-70
2022/09/17 08:08:36;;;;;;;;;;;;;;;;;;7387947;19;19991;-69
2022/09/17 08:11:04;;;;;;;2.90;1.17;;;;;;;;;;7387957;19;19940;-70
2022/09/17 08:13:30;;;;;;;1.05;0.68;;;;;;;;;;7387310;19;20006;-69
2022/09/17 08:16:06;;;;;;;1.83;1.00;;;;;;;;;;7387637;19;20441;-69
2022/09/17 08:18:33;;;;;;;1.10;0.85;;;;;;;;;;7386852;19;20015;-69
2022/09/17 08:21:00;;;;;;;2.10;0.82;;;;;;;;;;7387530;19;20475;-70
2022/09/17 08:23:26;;;;;;;0.82;0.82;;;;;;;;;;7386369;19;20017;-69
2022/09/17 08:25:54;;;;;;;1.23;0.90;;;;;;;;;;7385774;19;20003;-69
2022/09/17 08:28:20;;;;;;;1.70;0.90;;;;;;;;;;7387596;19;20013;-69
2022/09/17 08:30:47;;;;;;;2.53;1.48;;;;;;;;;;7387176;19;20403;-69
2022/09/17 08:33:12;;;;;;;2.38;0.93;;;;;;;;;;7386318;19;20019;-70
2022/09/17 08:35:38;;;;;;;1.45;0.90;;;;;;;;;;7387197;19;20003;-70
2022/09/17 08:38:03;;;;;;;1.67;0.93;;;;;;;;;;7386958;19;19998;-70
2022/09/17 08:40:28;;;;;;;7.65;2.00;;;;;;;;;;7387224;19;20347;-70
2022/09/17 08:42:59;;;;;;;3.13;0.80;;;;;;;;;;7384000;19;20006;-69
2022/09/17 08:45:25;;;;;;;4.93;1.58;;;;;;;;;;7386962;19;20003;-70
2022/09/17 08:48:00;;;;;;;1.65;0.90;;;;;;;;;;7385331;19;20002;-69
2022/09/17 08:50:30;;;;;;;3.05;1.10;;;;;;;;;;7386951;19;20461;-70
2022/09/17 08:53:21;;;;;;;2.60;1.02;;;;;;;;;;7385579;19;20010;-70
2022/09/17 08:56:20;;;;;;;2.05;1.05;;;;;;;;;;7386750;19;20492;-69
2022/09/17 08:58:58;;;;;;;1.23;1.00;;;;;;;;;;7383176;19;19999;-70
2022/09/17 09:01:44;;;;;;;2.88;1.10;;;;;;;;;;7384126;19;20356;-70
2022/09/17 09:04:15;;;;;;;3.63;1.10;;;;;;;;;;7383451;19;20033;-69
2022/09/17 09:06:59;;;;;;;1.05;0.88;;;;;;;;;;7386892;19;20399;-69
2022/09/17 09:09:30;;;;;;;2.78;1.02;;;;;;;;;;7385150;19;20013;-69
2022/09/17 09:12:04;;;;;;;7.95;1.05;;;;;;;;;;7387932;19;20002;-69
2022/09/17 09:14:39;;;;;;;4.47;0.90;;;;;;;;;;7391071;19;20098;-69
2022/09/17 09:17:08;;;;;;;3.25;1.35;;;;;;;;;;7397852;19;20349;-70
2022/09/17 09:19:43;;;;;;;2.33;1.33;;;;;;;;;;7389447;19;20003;-69
2022/09/17 09:22:18;;;;;;;1.25;0.80;;;;;;;;;;7392622;19;20472;-69
2022/09/17 09:24:50;;;;;;;3.63;1.25;;;;;;;;;;7393217;19;20108;-69
2022/09/17 09:27:31;;;;;;;2.78;0.90;;;;;;;;;;7393419;19;20348;-70
2022/09/17 09:30:10;;;;;;;2.67;0.98;;;;;;;;;;7393155;19;20007;-69
2022/09/17 09:33:20;;;;;;;2.45;0.98;;;;;;;;;;7392023;19;20500;-69
2022/09/17 09:35:45;;;;;;;4.55;1.33;;;;;;;;;;7388850;19;20007;-69
2022/09/17 09:38:14;;;;;;;2.92;0.82;;;;;;;;;;7388529;19;20029;-69
2022/09/17 09:40:45;;;;;;;1.98;0.55;;;;;;;;;;7390534;19;20015;-69
2022/09/17 09:43:42;;;;;;;2.25;1.10;;;;;;;;;;7391192;19;20003;-69
2022/09/17 09:46:22;;;;;;;1.08;0.70;;;;;;;;;;7395457;19;20006;-71
2022/09/17 09:49:32;;;;;;;2.60;0.70;;;;;;;;;;7393141;19;20003;-69
2022/09/17 09:52:15;;;;;;;2.10;0.57;;;;;;;;;;7392416;19;20396;-70
2022/09/17 09:55:02;;;;;;;0.50;0.50;;;;;;;;;;7393392;19;20460;-70
2022/09/17 09:57:52;;;;;;;0.65;0.50;;;;;;;;;;7392743;19;19998;-70
2022/09/17 10:00:26;;;;;;;1.00;0.45;;;;;;;;;;7392890;19;20002;-70
2022/09/17 10:03:18;;;;;;;0.38;0.38;;;;;;;;;;7390179;19;20338;-70
2022/09/17 10:06:00;;;;;;;2.53;0.40;;;;;;;;;;7392731;19;20062;-71
2022/09/17 10:08:26;;;;;;;0.50;0.47;;;;;;;;;;7393814;19;20406;-69
2022/09/17 10:10:56;;;;;;;0.30;0.30;;;;;;;;;;7392545;19;20006;-69
2022/09/17 10:13:22;;;;;;;1.70;1.03;;;;;;;;;;7391783;19;20090;-70
2022/09/17 10:15:47;;;;;;;0.70;0.70;;;;;;;;;;7392310;19;20500;-69
2022/09/17 10:18:18;;;;;;;0.20;0.20;;;;;;;;;;7391618;19;20021;-70
2022/09/17 10:20:55;;;;;;;3.90;0.52;;;;;;;;;;7392461;19;20342;-70
2022/09/17 10:23:22;;;;;;;0.80;0.80;;;;;;;;;;7388481;19;20010;-68
2022/09/17 10:25:49;;;;;;;2.20;0.60;;;;;;;;;;7392311;19;20028;-68
2022/09/17 10:28:23;;;;;;;0.85;0.82;;;;;;;;;;7391435;19;20002;-68
2022/09/17 10:31:18;;;;;;;1.20;0.70;;;;;;;;;;7392148;19;20096;-68
2022/09/17 10:33:55;;;;;;;1.38;0.68;;;;;;;;;;7388237;19;20002;-68
2022/09/17 10:36:40;;;;;;;2.95;1.08;;;;;;;;;;7391376;19;19998;-68
2022/09/17 10:39:17;;;;;;;6.65;1.70;;;;;;;;;;7389730;19;19998;-68
2022/09/17 10:41:57;;;;;;;2.72;0.73;;;;;;;;;;7390417;19;20002;-68
2022/09/17 10:44:25;;;;;;;1.83;0.82;;;;;;;;;;7389464;19;20007;-69
2022/09/17 10:46:52;;;;;;;1.60;0.68;;;;;;;;;;7389471;19;20422;-68
2022/09/17 10:49:23;;;;;;;1.20;0.57;;;;;;;;;;7388880;19;20006;-67
2022/09/17 10:51:48;;;;;;;3.20;0.88;;;;;;;;;;7389458;19;20063;-69
2022/09/17 10:54:50;;;;;;;3.33;1.08;;;;;;;;;;7388843;19;20003;-67
2022/09/17 10:57:28;;;;;;;1.67;0.88;;;;;;;;;;7388774;19;19998;-68
2022/09/17 11:00:22;;;;;;;1.83;0.65;;;;;;;;;;7388019;19;19998;-70
2022/09/17 11:03:24;;;;;;;1.10;0.80;;;;;;;;;;7389209;19;19998;-69
2022/09/17 11:06:17;;;;;;;2.13;0.82;;;;;;;;;;7390001;19;20009;-68
2022/09/17 11:09:04;;;;;;;1.23;0.70;;;;;;;;;;7389500;19;19994;-69
2022/09/17 11:11:45;;;;;;;2.35;0.60;;;;;;;;;;7390136;19;20295;-69
2022/09/17 11:14:19;;;;;;;1.45;0.80;;;;;;;;;;7388644;19;19999;-69
2022/09/17 11:17:07;;;;;;;2.75;0.82;;;;;;;;;;7389242;19;20003;-68
2022/09/17 11:19:56;;;;;;;0.70;0.60;;;;;;;;;;7388171;19;20540;-68
2022/09/17 11:22:43;;;;;;;1.95;0.85;;;;;;;;;;7386526;19;19991;-68
2022/09/17 11:25:24;;;;;;;1.90;0.88;;;;;;;;;;7391401;19;19994;-68
2022/09/17 11:28:00;;;;;;;0.40;0.40;;;;;;;;;;7387321;19;20019;-68
2022/09/17 11:30:58;;;;;;;1.98;0.80;;;;;;;;;;7387271;19;19998;-68
2022/09/17 11:34:02;;;;;;;1.15;0.68;;;;;;;;;;7383280;19;20045;-68
2022/09/17 11:36:44;;;;;;;0.57;0.57;;;;;;;;;;7384498;19;20003;-68
2022/09/17 11:39:17;;;;;;;1.70;1.35;;;;;;;;;;7383529;19;19997;-68
2022/09/17 11:41:48;;;;;;;0.85;0.43;;;;;;;;;;7387978;19;20509;-68
2022/09/17 11:44:31;;;;;;;2.13;0.80;;;;;;;;;;7386885;19;20002;-69
2022/09/17 11:47:20;;;;;;;0.90;0.68;;;;;;;;;;7387037;19;20083;-69
2022/09/17 11:49:52;;;;;;;2.25;0.82;;;;;;;;;;7386087;19;20005;-69
2022/09/17 11:52:30;;;;;;;2.58;0.80;;;;;;;;;;7387772;19;20015;-69
2022/09/17 11:55:08;;;;;;;1.85;0.70;;;;;;;;;;7386833;19;19998;-69
2022/09/17 11:57:38;;;;;;;0.43;0.43;;;;;;;;;;7388642;19;19994;-69
2022/09/17 12:00:13;;;;;;;0.88;0.52;;;;;;;;;;7386410;19;20005;-69
2022/09/17 12:02:47;;;;;;;1.27;0.50;;;;;;;;;;7391750;19;19994;-69
2022/09/17 12:05:20;;;;;;;2.03;0.57;;;;;;;;;;7386191;19;20024;-69
2022/09/17 12:08:09;;;;;;;1.95;0.65;;;;;;;;;;7388744;19;20006;-69
2022/09/17 12:10:42;;;;;;;2.47;0.80;;;;;;;;;;7388638;19;19999;-68
2022/09/17 12:13:32;;;;;;;2.10;0.73;;;;;;;;;;7387215;19;20061;-69
2022/09/17 12:16:31;;;;;;;0.60;0.60;;;;;;;;;;7388159;19;20463;-69
2022/09/17 12:19:04;;;;;;;0.82;0.77;;;;;;;;;;7387255;19;20015;-69
2022/09/17 12:21:38;;;;;;;1.83;0.50;;;;;;;;;;7387078;19;20015;-69
2022/09/17 12:24:19;;;;;;;2.65;0.90;;;;;;;;;;7385112;19;20519;-68
2022/09/17 12:27:03;;;;;;;3.08;0.82;;;;;;;;;;7385720;19;19999;-69
2022/09/17 12:29:32;;;;;;;0.93;0.55;;;;;;;;;;7385437;19;19990;-68
2022/09/17 12:32:24;;;;;;;2.13;0.35;;;;;;;;;;7386426;19;19994;-68
2022/09/17 12:35:01;;;;;;;0.38;0.35;;;;;;;;;;7384152;19;20012;-68
2022/09/17 12:37:38;;;;;;;0.45;0.45;;;;;;;;;;7387997;19;20099;-68
2022/09/17 12:40:29;;;;;;;2.38;0.70;;;;;;;;;;7385135;19;19998;-68
2022/09/17 12:43:13;;;;;;;0.70;0.43;;;;;;;;;;7384506;19;19999;-68
2022/09/17 12:45:44;;;;;;;1.50;0.50;;;;;;;;;;7387333;19;20359;-68
2022/09/17 12:48:38;;;;;;;1.48;0.70;;;;;;;;;;7394919;19;20486;-69
2022/09/17 12:51:13;;;;;;;0.40;0.30;;;;;;;;;;7391762;19;19998;-69
2022/09/17 12:53:47;;;;;;;0.98;0.45;;;;;;;;;;7393020;19;20028;-68
2022/09/17 12:56:27;;;;;;;4.00;0.65;;;;;;;;;;7394042;19;19994;-69
2022/09/17 12:59:09;;;;;;;2.47;0.52;;;;;;;;;;7392637;19;19999;-68
2022/09/17 13:01:44;;;;;;;2.70;0.40;;;;;;;;;;7393732;19;20531;-69
2022/09/17 13:04:21;;;;;;;0.75;0.38;;;;;;;;;;7390752;19;20397;-69
2022/09/17 13:06:50;;;;;;;2.65;0.60;;;;;;;;;;7393989;19;20003;-69
2022/09/17 13:09:30;;;;;;;0.90;0.52;;;;;;;;;;7391750;19;20085;-69
2022/09/17 13:12:10;;;;;;;1.55;0.70;;;;;;;;;;7393239;19;20448;-68
2022/09/17 13:15:11;;;;;;;2.73;0.87;;;;;;;;;;7391187;19;20005;-68
2022/09/17 13:17:48;;;;;;;0.88;0.60;;;;;;;;;;7393487;19;20228;-67
2022/09/17 13:20:16;;;;;;;0.98;0.50;;;;;;;;;;7393348;19;20030;-69
2022/09/17 13:22:48;;;;;;;1.70;0.60;;;;;;;;;;7389908;19;19999;-69
2022/09/17 13:25:16;;;;;;;1.08;0.65;;;;;;;;;;7393298;19;19995;-67
2022/09/17 13:27:43;;;;;;;0.20;0.20;;;;;;;;;;7391620;19;20028;-67
2022/09/17 13:30:14;;;;;;;0.40;0.40;;;;;;;;;;7393521;19;20020;-67
2022/09/17 13:32:40;;;;;;;0.52;0.40;;;;;;;;;;7392713;19;20013;-69
2022/09/17 13:35:05;;;;;;;0.55;0.55;;;;;;;;;;7391195;19;20473;-68
2022/09/17 13:37:34;;;;;;;0.98;0.50;;;;;;;;;;7394623;19;20002;-69
2022/09/17 13:40:01;;;;;;;0.30;0.30;;;;;;;;;;7390016;19;19999;-69
2022/09/17 13:42:41;;;;;;;1.20;0.70;;;;;;;;;;7390524;19;20461;-68
2022/09/17 13:45:15;;;;;;;5.05;0.88;;;;;;;;;;7392698;19;20016;-68
2022/09/17 13:48:01;;;;;;;1.77;0.80;;;;;;;;;;7391155;19;20020;-68
2022/09/17 13:50:35;;;;;;;1.42;1.00;;;;;;;;;;7391065;19;19991;-68
2022/09/17 13:53:13;;;;;;;4.22;1.40;;;;;;;;;;7389955;19;20032;-68
2022/09/17 13:55:39;;;;;;;1.60;0.50;;;;;;;;;;7392612;19;20002;-68
2022/09/17 13:58:07;;;;;;;1.15;0.77;;;;;;;;;;7390883;19;20016;-68
2022/09/17 14:01:05;;;;;;;1.85;0.50;;;;;;;;;;7392780;19;20015;-69
2022/09/17 14:03:30;;;;;;;1.60;0.75;;;;;;;;;;7391741;19;20326;-69
2022/09/17 14:06:07;;;;;;;0.60;0.60;;;;;;;;;;7394051;19;20066;-68
2022/09/17 14:08:45;;;;;;;0.43;0.43;;;;;;;;;;7392447;19;20223;-68
2022/09/17 14:11:27;;;;;;;1.02;0.60;;;;;;;;;;7391902;19;20015;-68
2022/09/17 14:13:57;;;;;;;0.45;0.38;;;;;;;;;;7389324;19;20002;-68
2022/09/17 14:16:44;;;;;;;1.48;0.50;;;;;;;;;;7392205;19;19998;-68
2022/09/17 14:19:37;;;;;;;2.00;0.60;;;;;;;;;;7390734;19;19990;-68
2022/09/17 14:22:16;;;;;;;0.30;0.30;;;;;;;;;;7392401;19;19990;-68
2022/09/17 14:24:41;;;;;;;1.20;0.50;;;;;;;;;;7389673;19;20024;-69
2022/09/17 14:27:18;;;;;;;2.13;0.77;;;;;;;;;;7391513;19;19991;-68
2022/09/17 14:30:02;;;;;;;0.75;0.52;;;;;;;;;;7391246;19;20279;-68
2022/09/17 14:32:38;;;;;;;3.45;0.70;;;;;;;;;;7391091;19;20020;-68
2022/09/17 14:35:20;;;;;;;0.52;0.30;;;;;;;;;;7388179;19;20002;-68
2022/09/17 14:37:52;;;;;;;1.20;0.40;;;;;;;;;;7390311;19;20108;-68
2022/09/17 14:40:19;;;;;;;0.20;0.20;;;;;;;;;;7390749;19;20066;-69
2022/09/17 14:42:47;;;;;;;2.97;0.77;;;;;;;;;;7389805;19;20069;-69
2022/09/17 14:45:19;;;;;;;1.13;0.60;;;;;;;;;;7390368;19;20050;-71
2022/09/17 14:47:45;;;;;;;0.55;0.30;;;;;;;;;;7390844;19;19997;-70
2022/09/17 14:50:24;;;;;;;1.48;0.50;;;;;;;;;;7390354;19;19995;-70
2022/09/17 14:52:52;;;;;;;1.10;0.40;;;;;;;;;;7387830;19;20002;-70
2022/09/17 14:55:24;;;;;;;0.50;0.50;;;;;;;;;;7388837;19;20007;-69
2022/09/17 14:57:54;;;;;;;2.40;0.40;;;;;;;;;;7389946;19;20011;-70
2022/09/17 15:00:23;;;;;;;0.43;0.43;;;;;;;;;;7390203;19;20381;-68
2022/09/17 15:02:54;;;;;;;1.05;0.60;;;;;;;;;;7390139;19;20239;-70
2022/09/17 15:05:28;;;;;;;1.13;0.47;;;;;;;;;;7389909;19;19998;-69
2022/09/17 15:08:24;;;;;;;0.82;0.82;;;;;;;;;;7389312;19;19999;-69
2022/09/17 15:11:00;;;;;;;0.38;0.38;;;;;;;;;;7387735;19;19998;-68
2022/09/17 15:13:28;;;;;;;0.63;0.25;;;;;;;;;;7388739;19;20003;-68
2022/09/17 15:16:11;;;;;;;0.80;0.60;;;;;;;;;;7390312;19;20020;-68
2022/09/17 15:18:51;;;;;;;2.63;0.55;;;;;;;;;;7386906;19;19999;-68